Time;durP1;ratioP1;P1;durP2;ratioP2;P2;SDS_P1;SDS_P2;PMS_P1;PMS_P2;Temp;Humidity;BMP_temperature;BMP_pressure;BME280_temperature;BME280_humidity;BME280_pressure;Samples;Min_cycle;Max_cycle;Signal;HPM_P1;HPM_P2
2021/11/23 00:01:43;;;;;;;;;;;24.90;36.70;;;;;;5094905;28;19908;-79
2021/11/23 00:04:09;;;;;;;;;;;24.90;36.80;;;;;;5077296;28;19908;-78
2021/11/23 00:06:36;;;;;;;;;;;24.90;36.90;;;;;;5094513;28;20244;-79
2021/11/23 00:09:04;;;;;;;;;;;24.90;36.90;;;;;;5094193;28;19913;-78
2021/11/23 00:11:30;;;;;;;;;;;24.90;36.90;;;;;;5094069;28;19995;-78
2021/11/23 00:13:55;;;;;;;;;;;24.90;37.00;;;;;;5094533;28;20012;-77
2021/11/23 00:16:21;;;;;;;;;;;24.80;37.10;;;;;;5095257;28;20451;-78
2021/11/23 00:18:49;;;;;;;;;;;24.80;37.10;;;;;;5094386;28;20341;-77
2021/11/23 00:21:15;;;;;;;;;;;24.80;37.10;;;;;;5094399;28;19997;-80
2021/11/23 00:23:43;;;;;;;;;;;24.90;37.20;;;;;;5094583;28;19908;-78
2021/11/23 00:26:08;;;;;;;;;;;24.90;37.20;;;;;;5094366;28;19956;-78
2021/11/23 00:28:36;;;;;;;;;;;24.90;37.30;;;;;;5094157;28;19986;-75
2021/11/23 00:31:01;;;;;;;;;;;24.80;37.30;;;;;;5095435;28;19912;-80
2021/11/23 00:33:31;;;;;;;;;;;24.80;37.30;;;;;;5118058;28;19994;-82
2021/11/23 00:35:59;;;;;;;;;;;24.80;37.40;;;;;;5119154;28;20018;-79
2021/11/23 00:38:27;;;;;;;;;;;24.80;37.40;;;;;;5118304;28;19965;-77
2021/11/23 00:40:58;;;;;;;;;;;24.80;37.40;;;;;;5101759;28;19918;-79
2021/11/23 00:43:25;;;;;;;;;;;24.80;37.40;;;;;;5119197;28;19907;-77
2021/11/23 00:45:54;;;;;;;;;;;24.80;37.50;;;;;;5118189;28;19912;-81
2021/11/23 00:48:21;;;;;;;;;;;24.80;37.50;;;;;;5118168;28;19911;-79
2021/11/23 00:50:50;;;;;;;;;;;24.80;37.50;;;;;;5101526;28;19994;-78
2021/11/23 00:53:17;;;;;;;;;;;24.80;37.60;;;;;;5119137;28;19958;-79
2021/11/23 00:55:45;;;;;;;;;;;24.80;37.60;;;;;;5118225;28;19919;-80
2021/11/23 00:58:11;;;;;;;;;;;24.80;37.70;;;;;;5101231;28;19947;-79
2021/11/23 01:00:36;;;;;;;;;;;24.80;37.70;;;;;;5118233;28;19908;-81
2021/11/23 01:03:02;;;;;;;;;;;24.80;38.30;;;;;;5118200;28;19908;-78
2021/11/23 01:05:28;;;;;;;;;;;24.80;37.70;;;;;;5100729;28;20355;-81
2021/11/23 01:07:56;;;;;;;;;;;24.80;37.80;;;;;;5117933;28;20320;-80
2021/11/23 01:10:21;;;;;;;;;;;24.80;37.80;;;;;;5118504;28;19912;-79
2021/11/23 01:12:47;;;;;;;;;;;24.80;37.80;;;;;;5117773;28;19908;-77
2021/11/23 01:15:15;;;;;;;;;;;24.80;37.90;;;;;;5118533;28;20236;-78
2021/11/23 01:17:40;;;;;;;;;;;24.80;37.80;;;;;;5118887;28;19984;-78
2021/11/23 01:20:06;;;;;;;;;;;24.80;37.90;;;;;;5117707;28;20337;-78
2021/11/23 01:22:34;;;;;;;;;;;24.80;37.90;;;;;;5117925;28;19908;-81
2021/11/23 01:25:00;;;;;;;;;;;24.70;37.90;;;;;;5117636;28;19907;-76
2021/11/23 01:27:28;;;;;;;;;;;24.80;38.00;;;;;;5100656;28;19919;-79
2021/11/23 01:29:53;;;;;;;;;;;24.70;38.00;;;;;;5100657;28;20240;-83
2021/11/23 01:32:19;;;;;;;;;;;24.70;38.00;;;;;;5089669;28;19919;-80
2021/11/23 01:34:47;;;;;;;;;;;24.70;38.10;;;;;;5080293;28;19967;-77
2021/11/23 01:37:12;;;;;;;;;;;24.70;38.10;;;;;;5079693;28;19981;-80
2021/11/23 01:39:38;;;;;;;;;;;24.70;38.10;;;;;;5080249;28;19913;-79
2021/11/23 01:42:04;;;;;;;;;;;24.70;38.10;;;;;;5096465;28;19908;-79
2021/11/23 01:44:29;;;;;;;;;;;24.70;38.10;;;;;;5079264;28;19929;-79
2021/11/23 01:46:55;;;;;;;;;;;24.70;38.10;;;;;;5080066;28;19908;-83
2021/11/23 01:49:20;;;;;;;;;;;24.70;38.20;;;;;;5097538;28;19920;-79
2021/11/23 01:51:46;;;;;;;;;;;24.70;38.20;;;;;;5079904;28;19918;-79
2021/11/23 01:54:11;;;;;;;;;;;24.70;38.20;;;;;;5079664;28;19912;-80
2021/11/23 01:56:37;;;;;;;;;;;24.70;38.80;;;;;;5097498;28;19916;-81
2021/11/23 01:59:05;;;;;;;;;;;24.70;38.20;;;;;;5079624;28;20006;-80
2021/11/23 02:01:30;;;;;;;;;;;24.70;38.30;;;;;;5096400;28;19908;-80
2021/11/23 02:03:59;;;;;;;;;;;24.70;38.30;;;;;;5079542;28;19937;-80
2021/11/23 02:06:24;;;;;;;;;;;24.70;38.30;;;;;;5079609;28;19909;-78
2021/11/23 02:08:50;;;;;;;;;;;24.70;38.40;;;;;;5097052;28;19920;-79
2021/11/23 02:11:21;;;;;;;;;;;24.70;38.40;;;;;;5096365;28;19908;-82
2021/11/23 02:13:47;;;;;;;;;;;24.70;38.40;;;;;;5096265;28;20360;-79
2021/11/23 02:16:12;;;;;;;;;;;24.70;38.50;;;;;;5096072;28;19912;-78
2021/11/23 02:18:38;;;;;;;;;;;24.70;38.50;;;;;;5079280;28;20330;-80
2021/11/23 02:21:03;;;;;;;;;;;24.70;38.50;;;;;;5095963;28;19908;-77
2021/11/23 02:23:29;;;;;;;;;;;24.70;38.50;;;;;;5096218;28;19918;-83
2021/11/23 02:25:54;;;;;;;;;;;24.70;38.50;;;;;;5079168;28;19909;-77
2021/11/23 02:28:22;;;;;;;;;;;24.70;38.50;;;;;;5095922;28;19943;-80
2021/11/23 02:30:49;;;;;;;;;;;24.60;38.40;;;;;;5096717;28;19907;-81
2021/11/23 02:33:15;;;;;;;;;;;24.60;38.40;;;;;;5078815;28;20396;-80
2021/11/23 02:35:43;;;;;;;;;;;24.70;38.50;;;;;;5095567;28;20341;-79
2021/11/23 02:38:09;;;;;;;;;;;24.70;38.50;;;;;;5095622;28;20395;-79
2021/11/23 02:40:34;;;;;;;;;;;24.70;38.50;;;;;;5079000;28;19908;-79
2021/11/23 02:43:00;;;;;;;;;;;24.70;38.50;;;;;;5078829;28;19975;-78
2021/11/23 02:45:26;;;;;;;;;;;24.70;38.50;;;;;;5095566;28;20348;-79
2021/11/23 02:47:52;;;;;;;;;;;24.70;38.50;;;;;;5078596;28;19916;-77
2021/11/23 02:50:19;;;;;;;;;;;24.60;38.40;;;;;;5095530;28;19944;-77
2021/11/23 02:52:45;;;;;;;;;;;24.70;38.50;;;;;;5078586;28;20260;-80
2021/11/23 02:55:10;;;;;;;;;;;24.60;38.50;;;;;;5094805;28;19908;-80
2021/11/23 02:57:38;;;;;;;;;;;24.60;38.60;;;;;;5078371;28;19920;-79
2021/11/23 03:00:05;;;;;;;;;;;24.60;38.60;;;;;;5078741;28;20244;-81
2021/11/23 03:02:31;;;;;;;;;;;24.60;38.60;;;;;;5078447;28;20335;-77
2021/11/23 03:05:00;;;;;;;;;;;24.60;38.60;;;;;;5095443;28;19908;-78
2021/11/23 03:07:28;;;;;;;;;;;24.60;38.60;;;;;;5095185;28;19912;-79
2021/11/23 03:09:56;;;;;;;;;;;24.60;38.60;;;;;;5078302;28;19923;-79
2021/11/23 03:12:25;;;;;;;;;;;24.60;38.70;;;;;;5095024;28;19923;-79
2021/11/23 03:14:50;;;;;;;;;;;24.60;38.60;;;;;;5095074;28;20238;-80
2021/11/23 03:17:16;;;;;;;;;;;24.60;38.60;;;;;;5077930;28;20340;-80
2021/11/23 03:19:45;;;;;;;;;;;24.60;38.70;;;;;;5095720;28;19908;-80
2021/11/23 03:22:10;;;;;;;;;;;24.60;38.70;;;;;;5094979;28;19951;-77
2021/11/23 03:24:36;;;;;;;;;;;24.60;38.70;;;;;;5094869;28;19916;-78
2021/11/23 03:27:01;;;;;;;;;;;24.60;38.70;;;;;;5094799;28;19998;-79
2021/11/23 03:29:27;;;;;;;;;;;24.60;38.70;;;;;;5077909;28;19912;-76
2021/11/23 03:31:55;;;;;;;;;;;24.60;38.70;;;;;;5078115;28;19919;-79
2021/11/23 03:34:21;;;;;;;;;;;24.60;38.70;;;;;;5094802;28;20006;-79
2021/11/23 03:36:46;;;;;;;;;;;24.60;38.70;;;;;;5094640;28;20495;-78
2021/11/23 03:39:12;;;;;;;;;;;24.50;38.70;;;;;;5094500;28;19908;-79
2021/11/23 03:41:40;;;;;;;;;;;24.60;38.70;;;;;;5094651;28;19912;-79
2021/11/23 03:44:10;;;;;;;;;;;24.60;38.70;;;;;;5077518;28;19908;-83
2021/11/23 03:46:40;;;;;;;;;;;24.60;38.70;;;;;;5077866;28;20230;-78
2021/11/23 03:49:06;;;;;;;;;;;24.50;38.70;;;;;;5094566;28;20237;-79
2021/11/23 03:51:32;;;;;;;;;;;24.60;38.70;;;;;;5094410;28;19937;-76
2021/11/23 03:53:58;;;;;;;;;;;24.60;38.80;;;;;;5094402;28;19908;-78
2021/11/23 03:56:23;;;;;;;;;;;24.50;38.70;;;;;;5094642;28;19935;-81
2021/11/23 03:58:49;;;;;;;;;;;24.50;38.70;;;;;;5094333;28;19908;-76
2021/11/23 04:01:16;;;;;;;;;;;24.60;38.80;;;;;;5077413;28;20001;-76
2021/11/23 04:03:42;;;;;;;;;;;24.50;38.80;;;;;;5094580;28;20398;-77
2021/11/23 04:06:08;;;;;;;;;;;24.50;38.70;;;;;;5095439;28;19949;-79
2021/11/23 04:08:33;;;;;;;;;;;24.50;38.80;;;;;;5098551;28;19919;-79
2021/11/23 04:10:59;;;;;;;;;;;24.60;38.80;;;;;;5099186;28;19998;-82
2021/11/23 04:13:24;;;;;;;;;;;24.60;38.80;;;;;;5098744;28;20343;-77
2021/11/23 04:15:50;;;;;;;;;;;24.50;38.70;;;;;;5081284;28;19908;-78
2021/11/23 04:18:15;;;;;;;;;;;24.50;38.80;;;;;;5081437;28;20020;-77
2021/11/23 04:20:43;;;;;;;;;;;24.50;38.80;;;;;;5081420;28;20002;-78
2021/11/23 04:23:09;;;;;;;;;;;24.50;38.80;;;;;;5098301;28;19908;-78
2021/11/23 04:25:34;;;;;;;;;;;24.50;38.80;;;;;;5098453;28;19919;-79
2021/11/23 04:28:00;;;;;;;;;;;24.50;38.80;;;;;;5081036;28;19963;-78
2021/11/23 04:30:28;;;;;;;;;;;24.50;38.80;;;;;;5081360;28;19978;-77
2021/11/23 04:32:56;;;;;;;;;;;24.60;38.90;;;;;;5080971;28;19978;-82
2021/11/23 04:35:21;;;;;;;;;;;24.50;38.80;;;;;;5097969;28;19912;-80
2021/11/23 04:37:49;;;;;;;;;;;24.50;38.80;;;;;;5101214;28;20446;-79
2021/11/23 04:40:18;;;;;;;;;;;24.50;38.90;;;;;;5098001;28;19956;-81
2021/11/23 04:42:46;;;;;;;;;;;24.50;38.90;;;;;;5098026;28;20018;-80
2021/11/23 04:45:12;;;;;;;;;;;24.50;38.90;;;;;;5097747;28;20018;-81
2021/11/23 04:47:37;;;;;;;;;;;24.50;38.90;;;;;;5098498;28;20002;-79
2021/11/23 04:50:09;;;;;;;;;;;24.50;38.90;;;;;;5098049;28;20371;-80
2021/11/23 04:52:34;;;;;;;;;;;24.50;38.90;;;;;;5098088;28;19907;-79
2021/11/23 04:55:02;;;;;;;;;;;24.50;38.90;;;;;;5098164;28;19918;-77
2021/11/23 04:57:28;;;;;;;;;;;24.50;39.40;;;;;;5097976;28;19912;-76
2021/11/23 04:59:53;;;;;;;;;;;24.50;38.90;;;;;;5080836;28;20390;-77
2021/11/23 05:02:19;;;;;;;;;;;24.50;38.90;;;;;;5080772;28;19908;-79
2021/11/23 05:04:47;;;;;;;;;;;24.50;38.90;;;;;;5080711;28;19991;-78
2021/11/23 05:07:13;;;;;;;;;;;24.50;38.90;;;;;;5097580;28;20298;-81
2021/11/23 05:09:38;;;;;;;;;;;24.50;38.90;;;;;;5080230;28;20340;-80
2021/11/23 05:12:09;;;;;;;;;;;24.50;38.90;;;;;;5080223;28;19908;-80
2021/11/23 05:14:37;;;;;;;;;;;24.50;38.90;;;;;;5080828;28;19908;-80
2021/11/23 05:17:05;;;;;;;;;;;24.50;38.90;;;;;;5080182;28;19943;-79
2021/11/23 05:19:30;;;;;;;;;;;24.50;38.90;;;;;;5080258;28;19964;-77
2021/11/23 05:21:58;;;;;;;;;;;24.50;38.90;;;;;;5097053;28;19915;-80
2021/11/23 05:24:24;;;;;;;;;;;24.50;38.90;;;;;;5080403;28;19916;-78
2021/11/23 05:26:49;;;;;;;;;;;24.50;38.90;;;;;;5097611;28;19990;-78
2021/11/23 05:29:17;;;;;;;;;;;24.50;38.90;;;;;;5080063;28;20351;-77
2021/11/23 05:31:42;;;;;;;;;;;24.50;38.90;;;;;;5085732;28;20272;-80
2021/11/23 05:34:08;;;;;;;;;;;24.50;38.90;;;;;;5100700;28;19908;-81
2021/11/23 05:36:33;;;;;;;;;;;24.50;38.90;;;;;;5100397;28;19954;-81
2021/11/23 05:38:59;;;;;;;;;;;24.50;38.90;;;;;;5100401;28;19915;-82
2021/11/23 05:41:25;;;;;;;;;;;24.50;39.50;;;;;;5100225;28;20292;-80
2021/11/23 05:43:50;;;;;;;;;;;24.50;38.90;;;;;;5100165;28;19908;-78
2021/11/23 05:46:16;;;;;;;;;;;24.50;39.00;;;;;;5100225;28;20302;-80
2021/11/23 05:48:41;;;;;;;;;;;24.50;39.00;;;;;;5099915;28;19915;-79
2021/11/23 05:51:07;;;;;;;;;;;24.50;39.00;;;;;;5100321;28;19908;-78
2021/11/23 05:53:35;;;;;;;;;;;24.50;38.90;;;;;;5117135;28;19908;-79
2021/11/23 05:56:01;;;;;;;;;;;24.50;38.90;;;;;;5099710;28;19943;-76
2021/11/23 05:58:27;;;;;;;;;;;24.50;38.90;;;;;;5099792;28;19914;-83
2021/11/23 06:00:55;;;;;;;;;;;24.50;38.90;;;;;;5116669;28;19918;-79
2021/11/23 06:03:20;;;;;;;;;;;24.50;38.90;;;;;;5099920;28;19908;-80
2021/11/23 06:05:46;;;;;;;;;;;24.50;39.00;;;;;;5117333;28;20313;-79
2021/11/23 06:08:11;;;;;;;;;;;24.50;39.00;;;;;;5099995;28;19943;-82
2021/11/23 06:10:37;;;;;;;;;;;24.50;38.90;;;;;;5099800;28;19912;-78
2021/11/23 06:13:05;;;;;;;;;;;24.50;38.90;;;;;;5117246;28;19965;-82
2021/11/23 06:15:31;;;;;;;;;;;24.50;38.90;;;;;;5116897;28;20289;-79
2021/11/23 06:18:03;;;;;;;;;;;24.50;38.90;;;;;;5099529;28;20371;-80
2021/11/23 06:20:34;;;;;;;;;;;24.50;38.90;;;;;;5116713;28;19908;-78
2021/11/23 06:23:02;;;;;;;;;;;24.50;39.00;;;;;;5099512;28;19907;-79
2021/11/23 06:25:28;;;;;;;;;;;24.50;39.00;;;;;;5099473;28;19951;-79
2021/11/23 06:27:53;;;;;;;;;;;24.50;39.00;;;;;;5116350;28;20386;-83
2021/11/23 06:30:19;;;;;;;;;;;24.50;39.00;;;;;;5098932;28;19907;-78
2021/11/23 06:32:47;;;;;;;;;;;24.50;39.00;;;;;;5101876;28;19908;-79
2021/11/23 06:35:13;;;;;;;;;;;24.50;39.20;;;;;;5096087;28;19915;-78
2021/11/23 06:37:39;;;;;;;;;;;24.50;39.10;;;;;;5095806;28;19920;-78
2021/11/23 06:40:05;;;;;;;;;;;24.50;39.10;;;;;;5095901;28;20007;-82
2021/11/23 06:42:30;;;;;;;;;;;24.50;39.10;;;;;;5096159;28;19939;-82
2021/11/23 06:45:01;;;;;;;;;;;24.50;39.00;;;;;;5095849;28;19951;-78
2021/11/23 06:47:31;;;;;;;;;;;24.50;39.00;;;;;;5078781;28;19955;-82
2021/11/23 06:49:59;;;;;;;;;;;24.50;38.90;;;;;;5078827;28;19935;-83
2021/11/23 06:52:25;;;;;;;;;;;24.50;38.90;;;;;;5078463;28;19947;-79
2021/11/23 06:54:56;;;;;;;;;;;24.50;38.90;;;;;;5078315;28;19947;-77
2021/11/23 06:57:21;;;;;;;;;;;24.50;39.00;;;;;;5078722;28;19916;-79
2021/11/23 06:59:47;;;;;;;;;;;24.50;38.90;;;;;;5078886;28;20026;-80
2021/11/23 07:02:12;;;;;;;;;;;24.50;38.70;;;;;;5095509;28;19916;-81
2021/11/23 07:04:38;;;;;;;;;;;24.50;38.70;;;;;;5095143;28;19958;-78
2021/11/23 07:07:06;;;;;;;;;;;24.50;38.70;;;;;;5095130;28;19908;-79
2021/11/23 07:09:34;;;;;;;;;;;24.50;38.70;;;;;;5078479;28;19912;-84
2021/11/23 07:12:02;;;;;;;;;;;24.50;38.80;;;;;;5077837;28;20467;-78
2021/11/23 07:14:27;;;;;;;;;;;24.50;38.70;;;;;;5078529;28;19919;-79
2021/11/23 07:16:53;;;;;;;;;;;24.50;38.70;;;;;;5095175;28;19916;-78
2021/11/23 07:19:18;;;;;;;;;;;24.50;38.70;;;;;;5078402;28;20337;-81
2021/11/23 07:21:44;;;;;;;;;;;24.50;38.70;;;;;;5077863;28;19934;-81
2021/11/23 07:24:09;;;;;;;;;;;24.50;38.70;;;;;;5094465;28;19908;-78
2021/11/23 07:26:37;;;;;;;;;;;24.50;38.70;;;;;;5094740;28;19908;-80
2021/11/23 07:29:05;;;;;;;;;;;24.50;38.70;;;;;;5094663;28;19947;-80
2021/11/23 07:31:31;;;;;;;;;;;24.50;38.70;;;;;;5082286;28;19918;-79
2021/11/23 07:33:58;;;;;;;;;;;24.50;38.70;;;;;;5115882;28;20002;-78
2021/11/23 07:36:24;;;;;;;;;;;24.50;38.70;;;;;;5117944;28;19973;-78
2021/11/23 07:38:53;;;;;;;;;;;24.50;38.70;;;;;;5116961;28;19907;-79
2021/11/23 07:41:18;;;;;;;;;;;24.50;38.70;;;;;;5120627;28;19937;-78
2021/11/23 07:43:46;;;;;;;;;;;24.50;38.70;;;;;;5100290;28;19907;-80
2021/11/23 07:46:15;;;;;;;;;;;24.50;38.70;;;;;;5098304;28;20302;-77
2021/11/23 07:48:46;;;;;;;;;;;24.50;38.70;;;;;;5116049;28;20401;-79
2021/11/23 07:51:11;;;;;;;;;;;24.50;38.70;;;;;;5115353;28;19955;-81
2021/11/23 07:53:37;;;;;;;;;;;24.50;38.70;;;;;;5098266;28;19907;-79
2021/11/23 07:56:06;;;;;;;;;;;24.50;38.70;;;;;;5097960;28;19918;-81
2021/11/23 07:58:33;;;;;;;;;;;24.50;38.70;;;;;;5098051;28;19908;-77
2021/11/23 08:00:59;;;;;;;;;;;24.50;38.70;;;;;;5114636;28;19907;-77
2021/11/23 08:03:27;;;;;;;;;;;24.50;39.70;;;;;;5114388;28;19918;-82
2021/11/23 08:05:52;;;;;;;;;;;24.50;40.20;;;;;;5114596;28;19951;-80
2021/11/23 08:08:20;;;;;;;;;;;24.60;40.80;;;;;;5097794;28;19959;-80
2021/11/23 08:10:46;;;;;;;;;;;24.60;40.70;;;;;;5115706;28;19972;-82
2021/11/23 08:13:14;;;;;;;;;;;24.70;40.70;;;;;;5099102;28;19919;-82
2021/11/23 08:15:40;;;;;;;;;;;24.70;40.90;;;;;;5114638;28;20006;-79
2021/11/23 08:18:06;;;;;;;;;;;24.80;40.90;;;;;;5097668;28;20007;-79
2021/11/23 08:20:31;;;;;;;;;;;24.70;41.10;;;;;;5097636;28;20388;-79
2021/11/23 08:22:57;;;;;;;;;;;24.80;41.30;;;;;;5098061;28;19907;-81
2021/11/23 08:25:25;;;;;;;;;;;24.80;41.30;;;;;;5097692;28;19990;-81
2021/11/23 08:27:51;;;;;;;;;;;24.80;41.30;;;;;;5097488;28;20359;-77
2021/11/23 08:30:16;;;;;;;;;;;24.90;41.20;;;;;;5097503;28;19959;-80
2021/11/23 08:32:42;;;;;;;;;;;24.90;41.30;;;;;;5114394;28;19911;-79
2021/11/23 08:35:08;;;;;;;;;;;24.90;41.20;;;;;;5097119;28;20336;-80
2021/11/23 08:37:33;;;;;;;;;;;25.00;41.20;;;;;;5097097;28;20035;-78
2021/11/23 08:39:59;;;;;;;;;;;25.00;41.20;;;;;;5114508;28;19972;-75
2021/11/23 08:42:24;;;;;;;;;;;25.00;41.10;;;;;;5115257;28;19911;-80
2021/11/23 08:44:50;;;;;;;;;;;25.00;41.20;;;;;;5114657;28;19959;-78
2021/11/23 08:47:16;;;;;;;;;;;25.00;41.20;;;;;;5097565;28;20270;-81
2021/11/23 08:49:42;;;;;;;;;;;25.10;41.20;;;;;;5114531;28;20093;-80
2021/11/23 08:52:07;;;;;;;;;;;25.10;41.10;;;;;;5098518;28;20013;-79
2021/11/23 08:54:33;;;;;;;;;;;25.10;41.10;;;;;;5101384;28;20426;-79
2021/11/23 08:57:05;;;;;;;;;;;25.10;41.00;;;;;;5117800;28;19964;-78
2021/11/23 08:59:33;;;;;;;;;;;25.10;41.00;;;;;;5101257;28;20340;-77
2021/11/23 09:01:59;;;;;;;;;;;25.20;41.00;;;;;;5101204;28;19908;-77
2021/11/23 09:04:24;;;;;;;;;;;25.20;40.90;;;;;;5101143;28;19915;-78
2021/11/23 09:06:50;;;;;;;;;;;25.20;40.70;;;;;;5118716;28;19950;-81
2021/11/23 09:09:16;;;;;;;;;;;25.20;40.80;;;;;;5101088;28;19919;-79
2021/11/23 09:11:42;;;;;;;;;;;25.20;40.90;;;;;;5100879;28;19933;-79
2021/11/23 09:14:10;;;;;;;;;;;25.30;40.90;;;;;;5100690;28;19977;-80
2021/11/23 09:16:38;;;;;;;;;;;25.30;40.90;;;;;;5117872;28;19955;-79
2021/11/23 09:19:04;;;;;;;;;;;24.70;29.90;;;;;;5101111;28;19908;-82
2021/11/23 09:21:32;;;;;;;;;;;23.50;32.00;;;;;;5101447;28;20401;-81
2021/11/23 09:23:57;;;;;;;;;;;22.90;34.00;;;;;;5100768;28;19907;-83
2021/11/23 09:26:25;;;;;;;;;;;23.00;35.50;;;;;;5100456;28;19908;-81
2021/11/23 09:28:53;;;;;;;;;;;23.10;36.30;;;;;;5100942;28;19959;-81
2021/11/23 09:31:21;;;;;;;;;;;23.30;36.70;;;;;;5098614;28;19998;-85
2021/11/23 09:33:47;;;;;;;;;;;23.50;36.90;;;;;;5080700;28;19995;-82
2021/11/23 09:36:15;;;;;;;;;;;23.70;37.10;;;;;;5097063;28;20395;-83
2021/11/23 09:38:41;;;;;;;;;;;23.80;40.90;;;;;;5097080;28;20244;-82
2021/11/23 09:41:06;;;;;;;;;;;24.00;44.10;;;;;;5097028;28;19992;-82
2021/11/23 09:43:32;;;;;;;;;;;24.20;45.70;;;;;;5080039;28;19913;-82
2021/11/23 09:45:57;;;;;;;;;;;24.30;46.50;;;;;;5096844;28;19908;-79
2021/11/23 09:48:23;;;;;;;;;;;24.40;46.30;;;;;;5097701;28;19912;-79
2021/11/23 09:50:49;;;;;;;;;;;24.50;46.50;;;;;;5079616;28;19908;-77
2021/11/23 09:53:14;;;;;;;;;;;24.60;46.60;;;;;;5096444;28;20313;-78
2021/11/23 09:55:42;;;;;;;;;;;24.70;46.60;;;;;;5096749;28;19939;-80
2021/11/23 09:58:10;;;;;;;;;;;24.80;46.70;;;;;;5096984;28;19973;-79
2021/11/23 10:00:37;;;;;;;;;;;24.90;46.40;;;;;;5096418;28;19908;-79
2021/11/23 10:03:18;;;;;;;;;;;25.00;46.40;;;;;;5096367;28;20519;-77
2021/11/23 10:05:43;;;;;;;;;;;25.00;46.30;;;;;;5096578;28;19908;-79
2021/11/23 10:08:15;;;;;;;;;;;25.00;46.20;;;;;;5079058;28;19923;-80
2021/11/23 10:10:47;;;;;;;;;;;25.10;46.20;;;;;;5096088;28;19987;-79
2021/11/23 10:13:13;;;;;;;;;;;25.10;46.30;;;;;;5096970;28;19923;-76
2021/11/23 10:15:45;;;;;;;;;;;25.20;46.20;;;;;;5095958;28;19908;-80
2021/11/23 10:18:23;;;;;;;;;;;25.20;46.20;;;;;;5095854;28;19908;-76
2021/11/23 10:20:58;;;;;;;;;;;25.20;46.10;;;;;;5095898;28;20386;-80
2021/11/23 10:23:31;;;;;;;;;;;25.30;46.20;;;;;;5095929;28;20256;-77
2021/11/23 10:26:00;;;;;;;;;;;25.30;46.10;;;;;;5096084;28;19908;-80
2021/11/23 10:28:29;;;;;;;;;;;25.30;46.10;;;;;;5079014;28;19912;-78
2021/11/23 10:30:54;;;;;;;;;;;25.30;46.00;;;;;;5079114;28;19909;-77
2021/11/23 10:33:22;;;;;;;;;;;25.40;45.90;;;;;;5095672;28;20269;-78
2021/11/23 10:35:51;;;;;;;;;;;25.40;45.80;;;;;;5078822;28;19915;-78
2021/11/23 10:38:16;;;;;;;;;;;25.40;45.70;;;;;;5096298;28;20000;-81
2021/11/23 10:40:43;;;;;;;;;;;25.40;45.70;;;;;;5095712;28;20285;-79
2021/11/23 10:43:09;;;;;;;;;;;25.50;45.70;;;;;;5096991;28;19998;-77
2021/11/23 10:45:40;;;;;;;;;;;25.50;45.60;;;;;;5078830;28;19908;-77
2021/11/23 10:48:09;;;;;;;;;;;25.50;45.60;;;;;;5094436;28;20258;-76
2021/11/23 10:50:38;;;;;;;;;;;25.50;45.40;;;;;;5077764;28;19908;-78
2021/11/23 10:53:05;;;;;;;;;;;25.50;45.30;;;;;;5096178;28;19919;-76
2021/11/23 10:55:31;;;;;;;;;;;25.50;45.00;;;;;;5078014;28;19908;-78
2021/11/23 10:57:58;;;;;;;;;;;25.60;44.90;;;;;;5095657;28;19908;-80
2021/11/23 11:00:24;;;;;;;;;;;25.60;44.90;;;;;;5095569;28;19915;-78
2021/11/23 11:02:50;;;;;;;;;;;25.60;44.70;;;;;;5078392;28;20325;-78
2021/11/23 11:05:18;;;;;;;;;;;25.60;44.70;;;;;;5095192;28;19908;-80
2021/11/23 11:07:44;;;;;;;;;;;25.60;44.50;;;;;;5077865;28;20306;-79
2021/11/23 11:10:10;;;;;;;;;;;25.60;44.60;;;;;;5078339;28;20007;-82
2021/11/23 11:12:38;;;;;;;;;;;24.70;30.00;;;;;;5095162;28;19908;-81
2021/11/23 11:15:07;;;;;;;;;;;23.50;30.10;;;;;;5094762;28;19914;-79
2021/11/23 11:17:36;;;;;;;;;;;22.40;31.80;;;;;;5078022;28;19923;-78
2021/11/23 11:20:04;;;;;;;;;;;22.30;36.20;;;;;;5094928;28;19912;-77
2021/11/23 11:22:30;;;;;;;;;;;22.40;37.70;;;;;;5095623;28;20337;-81
2021/11/23 11:25:24;;;;;;;;;;;22.60;38.70;;;;;;5094867;28;20000;-81
2021/11/23 11:27:48;;;;;;;;;;;22.90;38.80;;;;;;5093883;28;20252;-80
2021/11/23 11:30:36;;;;;;;;;;;23.20;38.80;;;;;;5077681;28;20385;-78
2021/11/23 11:33:04;;;;;;;;;;;23.40;39.00;;;;;;5094624;28;20367;-78
2021/11/23 11:35:39;;;;;;;;;;;23.70;39.20;;;;;;5095798;28;19908;-78
2021/11/23 11:38:24;;;;;;;;;;;23.90;39.50;;;;;;5077934;28;20342;-79
2021/11/23 11:40:49;;;;;;;;;;;24.10;39.50;;;;;;5094422;28;19916;-79
2021/11/23 11:43:15;;;;;;;;;;;24.20;39.50;;;;;;5077251;28;20343;-79
2021/11/23 11:45:46;;;;;;;;;;;24.40;39.40;;;;;;5094256;28;19908;-81
2021/11/23 11:48:34;;;;;;;;;;;24.50;39.40;;;;;;5077648;28;20380;-78
2021/11/23 11:51:03;;;;;;;;;;;24.60;39.40;;;;;;5095522;28;19908;-79
2021/11/23 11:53:35;;;;;;;;;;;24.70;39.40;;;;;;5077579;28;20348;-78
2021/11/23 11:56:01;;;;;;;;;;;24.80;39.40;;;;;;5077652;28;19919;-79
2021/11/23 11:58:48;;;;;;;;;;;24.80;39.40;;;;;;5094612;28;20299;-78
2021/11/23 12:01:20;;;;;;;;;;;24.90;39.40;;;;;;5093950;28;19908;-80
2021/11/23 12:04:01;;;;;;;;;;;24.90;39.30;;;;;;5094178;28;20295;-80
2021/11/23 12:06:45;;;;;;;;;;;25.00;39.40;;;;;;5094745;28;19948;-76
2021/11/23 12:09:29;;;;;;;;;;;25.00;39.40;;;;;;5095073;28;19912;-79
2021/11/23 12:12:01;;;;;;;;;;;25.00;39.10;;;;;;5094199;28;20276;-80
2021/11/23 12:14:31;;;;;;;;;;;25.10;38.70;;;;;;5094267;28;20007;-80
2021/11/23 12:17:24;;;;;;;;;;;25.10;38.90;;;;;;5077498;28;19908;-80
2021/11/23 12:20:03;;;;;;;;;;;25.10;39.60;;;;;;5076920;28;20002;-81
2021/11/23 12:22:36;;;;;;;;;;;25.10;40.50;;;;;;5094952;28;19908;-78
2021/11/23 12:25:02;;;;;;;;;;;25.20;41.10;;;;;;5077282;28;20012;-77
2021/11/23 12:27:32;;;;;;;;;;;25.20;41.40;;;;;;5096611;28;19958;-79
2021/11/23 12:29:57;;;;;;;;;;;25.20;41.50;;;;;;5098081;28;19923;-79
2021/11/23 12:32:32;;;;;;;;;;;25.30;41.60;;;;;;5098330;28;19908;-81
2021/11/23 12:35:00;;;;;;;;;;;25.30;41.60;;;;;;5098084;28;19909;-80
2021/11/23 12:37:32;;;;;;;;;;;25.30;41.50;;;;;;5097749;28;19920;-78
2021/11/23 12:40:00;;;;;;;;;;;25.30;41.50;;;;;;5097915;28;19915;-80
2021/11/23 12:42:25;;;;;;;;;;;25.30;41.50;;;;;;5097881;28;20313;-80
2021/11/23 12:44:51;;;;;;;;;;;25.40;41.60;;;;;;5098044;28;19915;-77
2021/11/23 12:47:18;;;;;;;;;;;25.40;41.60;;;;;;5098805;28;20260;-77
2021/11/23 12:49:53;;;;;;;;;;;25.40;41.50;;;;;;5097679;28;20303;-80
2021/11/23 12:52:21;;;;;;;;;;;25.40;41.40;;;;;;5080927;28;19934;-79
2021/11/23 12:54:48;;;;;;;;;;;25.40;41.30;;;;;;5097858;28;20280;-79
2021/11/23 12:57:17;;;;;;;;;;;25.40;41.40;;;;;;5097454;28;19922;-79
2021/11/23 12:59:52;;;;;;;;;;;25.40;41.30;;;;;;5098093;28;19912;-80
2021/11/23 13:02:24;;;;;;;;;;;25.50;41.40;;;;;;5080765;28;19977;-79
2021/11/23 13:04:50;;;;;;;;;;;25.50;41.30;;;;;;5098407;28;20323;-78
2021/11/23 13:07:15;;;;;;;;;;;25.50;41.40;;;;;;5097488;28;19958;-77
2021/11/23 13:09:59;;;;;;;;;;;25.50;41.50;;;;;;5080429;28;19981;-80
2021/11/23 13:12:25;;;;;;;;;;;25.50;41.40;;;;;;5098246;28;20320;-82
2021/11/23 13:14:54;;;;;;;;;;;25.50;41.50;;;;;;5097338;28;20022;-78
2021/11/23 13:17:44;;;;;;;;;;;25.50;41.50;;;;;;5080641;28;19951;-78
2021/11/23 13:20:11;;;;;;;;;;;25.50;41.50;;;;;;5097325;28;20003;-79
2021/11/23 13:22:40;;;;;;;;;;;25.60;41.60;;;;;;5097337;28;19983;-80
2021/11/23 13:25:05;;;;;;;;;;;25.50;41.50;;;;;;5080142;28;19919;-77
2021/11/23 13:27:31;;;;;;;;;;;25.60;41.60;;;;;;5097099;28;19908;-75
2021/11/23 13:30:00;;;;;;;;;;;25.60;41.70;;;;;;5080048;28;19947;-77
2021/11/23 13:32:25;;;;;;;;;;;25.60;41.70;;;;;;5096932;28;19919;-77
2021/11/23 13:35:06;;;;;;;;;;;25.60;41.60;;;;;;5096984;28;20007;-79
2021/11/23 13:37:43;;;;;;;;;;;25.60;41.60;;;;;;5080657;28;20103;-77
2021/11/23 13:40:22;;;;;;;;;;;25.60;41.60;;;;;;5079769;28;19908;-79
2021/11/23 13:42:50;;;;;;;;;;;25.60;41.60;;;;;;5080181;28;19912;-79
2021/11/23 13:45:20;;;;;;;;;;;25.60;41.60;;;;;;5096905;28;19919;-79
2021/11/23 13:47:46;;;;;;;;;;;25.60;41.60;;;;;;5096803;28;20345;-78
2021/11/23 13:50:13;;;;;;;;;;;25.60;42.10;;;;;;5096884;28;19916;-75
2021/11/23 13:52:38;;;;;;;;;;;25.60;42.10;;;;;;5096390;28;20337;-78
2021/11/23 13:55:07;;;;;;;;;;;25.70;41.50;;;;;;5096492;28;19908;-78
2021/11/23 13:57:44;;;;;;;;;;;25.70;41.50;;;;;;5079576;28;20277;-77
2021/11/23 14:00:11;;;;;;;;;;;25.70;41.30;;;;;;5096600;28;19931;-78
2021/11/23 14:02:46;;;;;;;;;;;25.10;35.90;;;;;;5096318;28;19916;-78
2021/11/23 14:05:15;;;;;;;;;;;25.10;38.40;;;;;;5079721;28;19908;-78
2021/11/23 14:07:50;;;;;;;;;;;25.10;39.40;;;;;;5097112;28;19918;-79
2021/11/23 14:10:29;;;;;;;;;;;25.10;39.90;;;;;;5096920;28;19912;-78
2021/11/23 14:13:04;;;;;;;;;;;25.10;40.00;;;;;;5096379;28;20229;-81
2021/11/23 14:15:37;;;;;;;;;;;25.10;40.10;;;;;;5079070;28;19908;-84
2021/11/23 14:18:05;;;;;;;;;;;25.20;40.10;;;;;;5079540;28;20237;-77
2021/11/23 14:20:32;;;;;;;;;;;25.20;40.10;;;;;;5097468;28;19908;-79